sensor_id;sensor_type;location;lat;lon;timestamp;temperature;humidity
38514;DHT22;24282;48.400;10.808;2023-02-26T00:00:19;1.40;77.80
38514;DHT22;24282;48.400;10.808;2023-02-26T00:02:46;1.40;78.20
38514;DHT22;24282;48.400;10.808;2023-02-26T00:05:15;1.40;78.20
38514;DHT22;24282;48.400;10.808;2023-02-26T00:07:41;1.40;78.40
38514;DHT22;24282;48.400;10.808;2023-02-26T00:10:09;1.40;78.30
38514;DHT22;24282;48.400;10.808;2023-02-26T00:12:37;1.40;77.60
38514;DHT22;24282;48.400;10.808;2023-02-26T00:15:04;1.40;78.10
38514;DHT22;24282;48.400;10.808;2023-02-26T00:20:15;1.30;78.10
38514;DHT22;24282;48.400;10.808;2023-02-26T00:22:44;1.30;78.00
38514;DHT22;24282;48.400;10.808;2023-02-26T00:25:12;1.30;78.00
38514;DHT22;24282;48.400;10.808;2023-02-26T00:27:38;1.30;77.10
38514;DHT22;24282;48.400;10.808;2023-02-26T00:30:07;1.30;77.10
38514;DHT22;24282;48.400;10.808;2023-02-26T00:32:34;1.30;77.50
38514;DHT22;24282;48.400;10.808;2023-02-26T00:35:00;1.20;77.60
38514;DHT22;24282;48.400;10.808;2023-02-26T00:43:00;1.20;77.80
38514;DHT22;24282;48.400;10.808;2023-02-26T00:45:26;1.20;77.60
38514;DHT22;24282;48.400;10.808;2023-02-26T00:51:16;1.20;78.00
38514;DHT22;24282;48.400;10.808;2023-02-26T00:53:52;1.10;78.30
38514;DHT22;24282;48.400;10.808;2023-02-26T00:56:22;1.10;78.70
38514;DHT22;24282;48.400;10.808;2023-02-26T00:58:47;1.10;78.60
38514;DHT22;24282;48.400;10.808;2023-02-26T01:01:13;1.10;78.90
38514;DHT22;24282;48.400;10.808;2023-02-26T01:03:39;1.10;79.10
38514;DHT22;24282;48.400;10.808;2023-02-26T01:06:10;1.00;79.40
38514;DHT22;24282;48.400;10.808;2023-02-26T01:08:58;1.00;79.50
38514;DHT22;24282;48.400;10.808;2023-02-26T01:11:25;1.00;79.50
38514;DHT22;24282;48.400;10.808;2023-02-26T01:13:51;1.00;79.60
38514;DHT22;24282;48.400;10.808;2023-02-26T01:16:21;1.00;79.60
38514;DHT22;24282;48.400;10.808;2023-02-26T01:19:08;1.00;79.30
38514;DHT22;24282;48.400;10.808;2023-02-26T01:21:45;1.00;78.90
38514;DHT22;24282;48.400;10.808;2023-02-26T01:24:14;1.10;78.50
38514;DHT22;24282;48.400;10.808;2023-02-26T01:26:40;1.10;77.80
38514;DHT22;24282;48.400;10.808;2023-02-26T01:29:06;1.00;77.40
38514;DHT22;24282;48.400;10.808;2023-02-26T01:31:53;1.00;77.30
38514;DHT22;24282;48.400;10.808;2023-02-26T01:37:28;0.90;77.30
38514;DHT22;24282;48.400;10.808;2023-02-26T01:42:47;0.90;77.40
38514;DHT22;24282;48.400;10.808;2023-02-26T01:45:22;0.90;77.20
38514;DHT22;24282;48.400;10.808;2023-02-26T01:48:02;0.90;77.50
38514;DHT22;24282;48.400;10.808;2023-02-26T01:50:31;1.00;76.90
38514;DHT22;24282;48.400;10.808;2023-02-26T01:53:23;0.90;77.20
38514;DHT22;24282;48.400;10.808;2023-02-26T01:55:55;0.90;77.10
38514;DHT22;24282;48.400;10.808;2023-02-26T01:58:23;0.90;77.20
38514;DHT22;24282;48.400;10.808;2023-02-26T02:00:49;0.80;77.00
38514;DHT22;24282;48.400;10.808;2023-02-26T02:03:17;0.80;76.80
38514;DHT22;24282;48.400;10.808;2023-02-26T02:05:51;0.80;76.30
38514;DHT22;24282;48.400;10.808;2023-02-26T02:08:19;0.80;75.80
38514;DHT22;24282;48.400;10.808;2023-02-26T02:10:46;0.70;75.70
38514;DHT22;24282;48.400;10.808;2023-02-26T02:24:21;0.60;76.10
38514;DHT22;24282;48.400;10.808;2023-02-26T02:30:13;0.70;75.70
38514;DHT22;24282;48.400;10.808;2023-02-26T02:32:54;0.60;75.10
38514;DHT22;24282;48.400;10.808;2023-02-26T02:35:46;0.50;75.50
38514;DHT22;24282;48.400;10.808;2023-02-26T02:38:19;0.50;75.90
38514;DHT22;24282;48.400;10.808;2023-02-26T02:40:54;0.50;75.50
38514;DHT22;24282;48.400;10.808;2023-02-26T02:43:26;0.50;75.00
38514;DHT22;24282;48.400;10.808;2023-02-26T02:48:39;0.50;76.00
38514;DHT22;24282;48.400;10.808;2023-02-26T02:51:18;0.40;75.90
38514;DHT22;24282;48.400;10.808;2023-02-26T02:54:15;0.40;75.90
38514;DHT22;24282;48.400;10.808;2023-02-26T02:57:14;0.40;75.00
38514;DHT22;24282;48.400;10.808;2023-02-26T03:04:37;0.40;75.30
38514;DHT22;24282;48.400;10.808;2023-02-26T03:07:03;0.30;75.20
38514;DHT22;24282;48.400;10.808;2023-02-26T03:09:29;0.30;75.30
38514;DHT22;24282;48.400;10.808;2023-02-26T03:11:54;0.30;75.60
38514;DHT22;24282;48.400;10.808;2023-02-26T03:14:20;0.30;75.80
38514;DHT22;24282;48.400;10.808;2023-02-26T03:20:16;0.30;75.80
38514;DHT22;24282;48.400;10.808;2023-02-26T03:33:09;0.30;76.30
38514;DHT22;24282;48.400;10.808;2023-02-26T03:36:00;0.30;76.30
38514;DHT22;24282;48.400;10.808;2023-02-26T03:38:42;0.30;75.90
38514;DHT22;24282;48.400;10.808;2023-02-26T03:41:19;0.20;76.00
38514;DHT22;24282;48.400;10.808;2023-02-26T03:43:57;0.20;76.10
38514;DHT22;24282;48.400;10.808;2023-02-26T03:46:29;0.20;75.90
38514;DHT22;24282;48.400;10.808;2023-02-26T03:48:59;0.20;76.00
38514;DHT22;24282;48.400;10.808;2023-02-26T03:51:29;0.20;76.00
38514;DHT22;24282;48.400;10.808;2023-02-26T03:54:27;0.20;76.20
38514;DHT22;24282;48.400;10.808;2023-02-26T03:57:14;0.20;75.90
38514;DHT22;24282;48.400;10.808;2023-02-26T04:00:07;0.20;75.80
38514;DHT22;24282;48.400;10.808;2023-02-26T04:03:09;0.10;75.50
38514;DHT22;24282;48.400;10.808;2023-02-26T04:05:35;0.10;75.70
38514;DHT22;24282;48.400;10.808;2023-02-26T04:08:02;0.10;76.00
38514;DHT22;24282;48.400;10.808;2023-02-26T04:10:35;0.00;76.10
38514;DHT22;24282;48.400;10.808;2023-02-26T04:13:02;0.00;75.90
38514;DHT22;24282;48.400;10.808;2023-02-26T04:15:28;0.00;75.60
38514;DHT22;24282;48.400;10.808;2023-02-26T04:17:54;0.00;75.80
38514;DHT22;24282;48.400;10.808;2023-02-26T04:20:20;0.00;75.80
38514;DHT22;24282;48.400;10.808;2023-02-26T04:22:46;0.00;75.90
38514;DHT22;24282;48.400;10.808;2023-02-26T04:25:11;0.00;75.90
38514;DHT22;24282;48.400;10.808;2023-02-26T04:27:37;0.00;75.80
38514;DHT22;24282;48.400;10.808;2023-02-26T04:30:03;0.00;75.50
38514;DHT22;24282;48.400;10.808;2023-02-26T04:32:31;0.00;75.20
38514;DHT22;24282;48.400;10.808;2023-02-26T04:34:56;0.00;74.80
38514;DHT22;24282;48.400;10.808;2023-02-26T04:37:22;0.00;75.20
38514;DHT22;24282;48.400;10.808;2023-02-26T04:39:48;0.00;75.70
38514;DHT22;24282;48.400;10.808;2023-02-26T04:42:14;0.00;76.10
38514;DHT22;24282;48.400;10.808;2023-02-26T04:44:40;0.00;76.30
38514;DHT22;24282;48.400;10.808;2023-02-26T04:47:06;0.00;76.20
38514;DHT22;24282;48.400;10.808;2023-02-26T04:49:33;0.00;76.30
38514;DHT22;24282;48.400;10.808;2023-02-26T04:51:59;0.00;76.20
38514;DHT22;24282;48.400;10.808;2023-02-26T04:54:25;-3276.70;76.30
38514;DHT22;24282;48.400;10.808;2023-02-26T04:56:51;-3276.70;76.10
38514;DHT22;24282;48.400;10.808;2023-02-26T04:59:17;-3276.70;76.30
38514;DHT22;24282;48.400;10.808;2023-02-26T05:01:45;-3276.70;76.40
38514;DHT22;24282;48.400;10.808;2023-02-26T05:04:10;-3276.70;76.20
38514;DHT22;24282;48.400;10.808;2023-02-26T05:06:37;-3276.70;76.00
38514;DHT22;24282;48.400;10.808;2023-02-26T05:09:03;-3276.70;75.80
38514;DHT22;24282;48.400;10.808;2023-02-26T05:11:29;-3276.70;75.80
38514;DHT22;24282;48.400;10.808;2023-02-26T05:13:58;-3276.60;75.40
38514;DHT22;24282;48.400;10.808;2023-02-26T05:16:26;-3276.60;75.40
38514;DHT22;24282;48.400;10.808;2023-02-26T05:18:52;-3276.60;75.60
38514;DHT22;24282;48.400;10.808;2023-02-26T05:21:18;-3276.60;75.70
38514;DHT22;24282;48.400;10.808;2023-02-26T05:23:44;-3276.60;75.30
38514;DHT22;24282;48.400;10.808;2023-02-26T05:26:09;-3276.50;75.20
38514;DHT22;24282;48.400;10.808;2023-02-26T05:28:35;-3276.50;74.90
38514;DHT22;24282;48.400;10.808;2023-02-26T05:31:04;-3276.50;75.20
38514;DHT22;24282;48.400;10.808;2023-02-26T05:33:31;-3276.40;75.30
38514;DHT22;24282;48.400;10.808;2023-02-26T05:36:00;-3276.40;75.30
38514;DHT22;24282;48.400;10.808;2023-02-26T05:38:25;-3276.40;75.30
38514;DHT22;24282;48.400;10.808;2023-02-26T05:40:55;-3276.30;75.40
38514;DHT22;24282;48.400;10.808;2023-02-26T05:43:21;-3276.40;75.60
38514;DHT22;24282;48.400;10.808;2023-02-26T05:45:49;-3276.30;75.50
38514;DHT22;24282;48.400;10.808;2023-02-26T05:48:15;-3276.40;75.40
38514;DHT22;24282;48.400;10.808;2023-02-26T05:50:40;-3276.30;75.60
38514;DHT22;24282;48.400;10.808;2023-02-26T05:53:06;-3276.30;75.60
38514;DHT22;24282;48.400;10.808;2023-02-26T05:55:32;-3276.30;75.50
38514;DHT22;24282;48.400;10.808;2023-02-26T05:57:57;-3276.30;75.50
38514;DHT22;24282;48.400;10.808;2023-02-26T06:00:23;-3276.30;75.30
38514;DHT22;24282;48.400;10.808;2023-02-26T06:02:49;-3276.30;74.90
38514;DHT22;24282;48.400;10.808;2023-02-26T06:05:15;-3276.30;74.90
38514;DHT22;24282;48.400;10.808;2023-02-26T06:07:40;-3276.30;75.10
38514;DHT22;24282;48.400;10.808;2023-02-26T06:10:07;-3276.30;74.40
38514;DHT22;24282;48.400;10.808;2023-02-26T06:12:34;-3276.20;74.80
38514;DHT22;24282;48.400;10.808;2023-02-26T06:14:59;-3276.20;75.00
38514;DHT22;24282;48.400;10.808;2023-02-26T06:17:26;-3276.20;75.10
38514;DHT22;24282;48.400;10.808;2023-02-26T06:19:52;-3276.20;75.00
38514;DHT22;24282;48.400;10.808;2023-02-26T06:22:18;-3276.20;74.90
38514;DHT22;24282;48.400;10.808;2023-02-26T06:24:44;-3276.10;74.60
38514;DHT22;24282;48.400;10.808;2023-02-26T06:27:10;-3276.10;74.40
38514;DHT22;24282;48.400;10.808;2023-02-26T06:29:35;-3276.20;74.60
38514;DHT22;24282;48.400;10.808;2023-02-26T06:32:03;-3276.10;74.70
38514;DHT22;24282;48.400;10.808;2023-02-26T06:34:29;-3276.10;74.60
38514;DHT22;24282;48.400;10.808;2023-02-26T06:36:54;-3276.20;74.80
38514;DHT22;24282;48.400;10.808;2023-02-26T06:39:20;-3276.10;74.60
38514;DHT22;24282;48.400;10.808;2023-02-26T06:41:46;-3276.10;74.80
38514;DHT22;24282;48.400;10.808;2023-02-26T06:44:11;-3276.10;75.00
38514;DHT22;24282;48.400;10.808;2023-02-26T06:46:37;-3276.20;74.60
38514;DHT22;24282;48.400;10.808;2023-02-26T06:49:03;-3276.20;74.10
38514;DHT22;24282;48.400;10.808;2023-02-26T06:51:29;-3276.20;74.20
38514;DHT22;24282;48.400;10.808;2023-02-26T06:53:55;-3276.20;74.40
38514;DHT22;24282;48.400;10.808;2023-02-26T06:56:22;-3276.20;74.20
38514;DHT22;24282;48.400;10.808;2023-02-26T06:58:48;-3276.10;74.30
38514;DHT22;24282;48.400;10.808;2023-02-26T07:01:14;-3276.10;74.60
38514;DHT22;24282;48.400;10.808;2023-02-26T07:03:40;-3276.20;74.70
38514;DHT22;24282;48.400;10.808;2023-02-26T07:06:07;-3276.10;74.50
38514;DHT22;24282;48.400;10.808;2023-02-26T07:08:34;-3276.20;74.70
38514;DHT22;24282;48.400;10.808;2023-02-26T07:11:00;-3276.20;74.60
38514;DHT22;24282;48.400;10.808;2023-02-26T07:13:26;-3276.20;74.30
38514;DHT22;24282;48.400;10.808;2023-02-26T07:15:52;-3276.20;74.50
38514;DHT22;24282;48.400;10.808;2023-02-26T07:18:18;-3276.20;74.20
38514;DHT22;24282;48.400;10.808;2023-02-26T07:20:43;-3276.20;74.10
38514;DHT22;24282;48.400;10.808;2023-02-26T07:23:10;-3276.20;74.10
38514;DHT22;24282;48.400;10.808;2023-02-26T07:25:36;-3276.20;74.20
38514;DHT22;24282;48.400;10.808;2023-02-26T07:28:02;-3276.20;74.30
38514;DHT22;24282;48.400;10.808;2023-02-26T07:30:28;-3276.30;74.10
38514;DHT22;24282;48.400;10.808;2023-02-26T07:32:55;-3276.30;73.60
38514;DHT22;24282;48.400;10.808;2023-02-26T07:35:22;-3276.30;73.80
38514;DHT22;24282;48.400;10.808;2023-02-26T07:37:48;-3276.30;74.00
38514;DHT22;24282;48.400;10.808;2023-02-26T07:40:14;-3276.30;74.20
38514;DHT22;24282;48.400;10.808;2023-02-26T07:42:40;-3276.30;74.20
38514;DHT22;24282;48.400;10.808;2023-02-26T07:45:07;-3276.30;73.90
38514;DHT22;24282;48.400;10.808;2023-02-26T07:47:33;-3276.40;74.00
38514;DHT22;24282;48.400;10.808;2023-02-26T07:49:59;-3276.40;73.70
38514;DHT22;24282;48.400;10.808;2023-02-26T07:52:25;-3276.40;74.70
38514;DHT22;24282;48.400;10.808;2023-02-26T07:54:51;-3276.60;79.40
38514;DHT22;24282;48.400;10.808;2023-02-26T07:57:18;-3276.70;75.30
38514;DHT22;24282;48.400;10.808;2023-02-26T07:59:44;-3276.70;73.90
38514;DHT22;24282;48.400;10.808;2023-02-26T08:02:10;-3276.70;72.90
38514;DHT22;24282;48.400;10.808;2023-02-26T08:04:39;-3276.70;72.70
38514;DHT22;24282;48.400;10.808;2023-02-26T08:07:05;-3276.70;73.10
38514;DHT22;24282;48.400;10.808;2023-02-26T08:09:31;-3276.70;73.30
38514;DHT22;24282;48.400;10.808;2023-02-26T08:11:57;-3276.70;73.60
38514;DHT22;24282;48.400;10.808;2023-02-26T08:14:23;0.00;73.50
38514;DHT22;24282;48.400;10.808;2023-02-26T08:16:49;-3276.70;73.40
38514;DHT22;24282;48.400;10.808;2023-02-26T08:19:14;0.00;73.40
38514;DHT22;24282;48.400;10.808;2023-02-26T08:21:40;0.00;73.20
38514;DHT22;24282;48.400;10.808;2023-02-26T08:24:06;0.00;73.70
38514;DHT22;24282;48.400;10.808;2023-02-26T08:26:35;0.00;74.00
38514;DHT22;24282;48.400;10.808;2023-02-26T08:29:01;0.00;74.40
38514;DHT22;24282;48.400;10.808;2023-02-26T08:31:27;0.20;73.70
38514;DHT22;24282;48.400;10.808;2023-02-26T08:33:53;0.30;73.30
38514;DHT22;24282;48.400;10.808;2023-02-26T08:36:18;0.30;73.30
38514;DHT22;24282;48.400;10.808;2023-02-26T08:38:46;0.40;72.90
38514;DHT22;24282;48.400;10.808;2023-02-26T08:41:12;0.50;72.40
38514;DHT22;24282;48.400;10.808;2023-02-26T08:43:38;0.40;72.50
38514;DHT22;24282;48.400;10.808;2023-02-26T08:46:04;0.50;72.40
38514;DHT22;24282;48.400;10.808;2023-02-26T08:48:30;0.50;72.50
38514;DHT22;24282;48.400;10.808;2023-02-26T08:50:55;0.50;72.80
38514;DHT22;24282;48.400;10.808;2023-02-26T08:53:21;0.50;72.80
38514;DHT22;24282;48.400;10.808;2023-02-26T08:55:51;0.50;72.40
38514;DHT22;24282;48.400;10.808;2023-02-26T08:58:18;0.50;72.30
38514;DHT22;24282;48.400;10.808;2023-02-26T09:00:44;0.50;72.10
38514;DHT22;24282;48.400;10.808;2023-02-26T09:03:10;0.50;72.10
38514;DHT22;24282;48.400;10.808;2023-02-26T09:05:35;0.50;72.00
38514;DHT22;24282;48.400;10.808;2023-02-26T09:08:01;0.50;72.10
38514;DHT22;24282;48.400;10.808;2023-02-26T09:10:27;0.50;72.40
38514;DHT22;24282;48.400;10.808;2023-02-26T09:12:53;0.50;72.60
38514;DHT22;24282;48.400;10.808;2023-02-26T09:15:19;0.50;72.80
38514;DHT22;24282;48.400;10.808;2023-02-26T09:17:46;0.50;73.60
38514;DHT22;24282;48.400;10.808;2023-02-26T09:20:13;0.50;74.60
38514;DHT22;24282;48.400;10.808;2023-02-26T09:22:40;0.50;75.70
38514;DHT22;24282;48.400;10.808;2023-02-26T09:25:06;0.60;76.10
38514;DHT22;24282;48.400;10.808;2023-02-26T09:27:32;0.60;76.30
38514;DHT22;24282;48.400;10.808;2023-02-26T09:30:00;0.60;76.30
38514;DHT22;24282;48.400;10.808;2023-02-26T09:32:25;0.70;76.20
38514;DHT22;24282;48.400;10.808;2023-02-26T09:34:54;0.70;76.20
38514;DHT22;24282;48.400;10.808;2023-02-26T09:37:20;0.80;76.20
38514;DHT22;24282;48.400;10.808;2023-02-26T09:39:46;0.80;76.00
38514;DHT22;24282;48.400;10.808;2023-02-26T09:44:59;0.80;76.10
38514;DHT22;24282;48.400;10.808;2023-02-26T09:47:44;0.80;76.00
38514;DHT22;24282;48.400;10.808;2023-02-26T09:50:22;0.80;76.10
38514;DHT22;24282;48.400;10.808;2023-02-26T09:57:48;0.70;76.30
38514;DHT22;24282;48.400;10.808;2023-02-26T10:00:34;0.60;76.30
38514;DHT22;24282;48.400;10.808;2023-02-26T10:03:27;0.60;76.30
38514;DHT22;24282;48.400;10.808;2023-02-26T10:08:36;0.70;76.50
38514;DHT22;24282;48.400;10.808;2023-02-26T10:11:10;0.60;76.20
38514;DHT22;24282;48.400;10.808;2023-02-26T10:16:08;0.70;76.00
38514;DHT22;24282;48.400;10.808;2023-02-26T10:18:40;0.70;75.20
38514;DHT22;24282;48.400;10.808;2023-02-26T10:21:27;0.70;74.80
38514;DHT22;24282;48.400;10.808;2023-02-26T10:24:00;0.80;74.10
38514;DHT22;24282;48.400;10.808;2023-02-26T10:26:32;0.90;73.00
38514;DHT22;24282;48.400;10.808;2023-02-26T10:32:27;0.80;73.30
38514;DHT22;24282;48.400;10.808;2023-02-26T10:35:04;0.80;73.70
38514;DHT22;24282;48.400;10.808;2023-02-26T10:40:31;0.80;73.90
38514;DHT22;24282;48.400;10.808;2023-02-26T10:43:27;0.80;74.20
38514;DHT22;24282;48.400;10.808;2023-02-26T10:51:45;1.00;74.10
38514;DHT22;24282;48.400;10.808;2023-02-26T10:54:21;1.00;73.70
38514;DHT22;24282;48.400;10.808;2023-02-26T10:56:49;1.00;73.40
38514;DHT22;24282;48.400;10.808;2023-02-26T10:59:14;1.00;74.00
38514;DHT22;24282;48.400;10.808;2023-02-26T11:01:40;1.00;74.10
38514;DHT22;24282;48.400;10.808;2023-02-26T11:04:12;1.00;73.50
38514;DHT22;24282;48.400;10.808;2023-02-26T11:06:50;1.00;74.30
38514;DHT22;24282;48.400;10.808;2023-02-26T11:09:21;1.10;74.30
38514;DHT22;24282;48.400;10.808;2023-02-26T11:11:54;1.10;74.60
38514;DHT22;24282;48.400;10.808;2023-02-26T11:14:22;1.10;74.30
38514;DHT22;24282;48.400;10.808;2023-02-26T11:16:53;1.20;74.40
38514;DHT22;24282;48.400;10.808;2023-02-26T11:19:26;1.20;74.30
38514;DHT22;24282;48.400;10.808;2023-02-26T11:21:53;1.20;74.00
38514;DHT22;24282;48.400;10.808;2023-02-26T11:26:55;1.20;75.30
38514;DHT22;24282;48.400;10.808;2023-02-26T11:29:22;1.20;76.00
38514;DHT22;24282;48.400;10.808;2023-02-26T11:31:50;1.30;76.10
38514;DHT22;24282;48.400;10.808;2023-02-26T11:34:21;1.30;75.80
38514;DHT22;24282;48.400;10.808;2023-02-26T11:36:47;1.40;76.10
38514;DHT22;24282;48.400;10.808;2023-02-26T11:39:14;1.40;76.20
38514;DHT22;24282;48.400;10.808;2023-02-26T11:41:41;1.50;76.00
38514;DHT22;24282;48.400;10.808;2023-02-26T11:44:17;1.50;74.30
38514;DHT22;24282;48.400;10.808;2023-02-26T11:46:52;1.60;73.00
38514;DHT22;24282;48.400;10.808;2023-02-26T11:49:23;1.60;72.50
38514;DHT22;24282;48.400;10.808;2023-02-26T11:52:27;1.50;72.90
38514;DHT22;24282;48.400;10.808;2023-02-26T11:55:00;1.60;73.50
38514;DHT22;24282;48.400;10.808;2023-02-26T11:57:28;1.60;73.20
38514;DHT22;24282;48.400;10.808;2023-02-26T11:59:57;1.60;72.70
38514;DHT22;24282;48.400;10.808;2023-02-26T12:02:24;1.70;72.80
38514;DHT22;24282;48.400;10.808;2023-02-26T12:04:56;1.70;73.20
38514;DHT22;24282;48.400;10.808;2023-02-26T12:07:22;1.70;72.20
38514;DHT22;24282;48.400;10.808;2023-02-26T12:09:48;1.70;71.90
38514;DHT22;24282;48.400;10.808;2023-02-26T12:25:49;2.10;69.70
38514;DHT22;24282;48.400;10.808;2023-02-26T12:28:30;2.10;69.70
38514;DHT22;24282;48.400;10.808;2023-02-26T12:39:12;2.00;69.10
38514;DHT22;24282;48.400;10.808;2023-02-26T12:44:43;2.00;68.10
38514;DHT22;24282;48.400;10.808;2023-02-26T12:50:08;2.00;68.20
38514;DHT22;24282;48.400;10.808;2023-02-26T13:06:31;2.00;70.40
38514;DHT22;24282;48.400;10.808;2023-02-26T13:09:29;2.00;68.50
38514;DHT22;24282;48.400;10.808;2023-02-26T13:17:44;2.30;67.10
38514;DHT22;24282;48.400;10.808;2023-02-26T13:20:23;2.30;67.30
38514;DHT22;24282;48.400;10.808;2023-02-26T13:22:54;2.40;66.10
38514;DHT22;24282;48.400;10.808;2023-02-26T13:30:52;2.60;66.10
38514;DHT22;24282;48.400;10.808;2023-02-26T13:33:22;2.70;67.40
38514;DHT22;24282;48.400;10.808;2023-02-26T13:35:51;2.70;68.90
38514;DHT22;24282;48.400;10.808;2023-02-26T13:43:46;2.30;70.50
38514;DHT22;24282;48.400;10.808;2023-02-26T13:46:38;2.30;70.70
38514;DHT22;24282;48.400;10.808;2023-02-26T13:51:46;2.30;71.40
38514;DHT22;24282;48.400;10.808;2023-02-26T14:05:08;2.60;68.10
38514;DHT22;24282;48.400;10.808;2023-02-26T14:07:52;2.50;67.50
38514;DHT22;24282;48.400;10.808;2023-02-26T14:10:42;2.50;67.00
38514;DHT22;24282;48.400;10.808;2023-02-26T14:13:21;2.30;66.60
38514;DHT22;24282;48.400;10.808;2023-02-26T14:18:40;2.30;66.40
38514;DHT22;24282;48.400;10.808;2023-02-26T14:24:04;2.20;66.50
38514;DHT22;24282;48.400;10.808;2023-02-26T14:26:35;2.30;66.90
38514;DHT22;24282;48.400;10.808;2023-02-26T14:29:25;2.20;66.30
38514;DHT22;24282;48.400;10.808;2023-02-26T14:32:04;2.30;65.10
38514;DHT22;24282;48.400;10.808;2023-02-26T14:34:47;2.30;64.40
38514;DHT22;24282;48.400;10.808;2023-02-26T14:37:14;2.40;63.30
38514;DHT22;24282;48.400;10.808;2023-02-26T14:40:03;2.30;64.20
38514;DHT22;24282;48.400;10.808;2023-02-26T14:42:56;2.30;63.70
38514;DHT22;24282;48.400;10.808;2023-02-26T14:45:34;2.30;62.20
38514;DHT22;24282;48.400;10.808;2023-02-26T14:48:03;2.30;62.70
38514;DHT22;24282;48.400;10.808;2023-02-26T14:50:41;2.20;62.20
38514;DHT22;24282;48.400;10.808;2023-02-26T14:53:18;2.30;62.60
38514;DHT22;24282;48.400;10.808;2023-02-26T15:01:49;2.20;63.00
38514;DHT22;24282;48.400;10.808;2023-02-26T15:07:46;2.30;64.10
38514;DHT22;24282;48.400;10.808;2023-02-26T15:21:22;2.20;63.30
38514;DHT22;24282;48.400;10.808;2023-02-26T15:23:55;2.20;62.90
38514;DHT22;24282;48.400;10.808;2023-02-26T15:26:25;2.30;62.20
38514;DHT22;24282;48.400;10.808;2023-02-26T15:28:52;2.30;62.60
38514;DHT22;24282;48.400;10.808;2023-02-26T15:31:21;2.40;63.90
38514;DHT22;24282;48.400;10.808;2023-02-26T15:33:55;2.50;65.20
38514;DHT22;24282;48.400;10.808;2023-02-26T15:36:21;2.50;66.40
38514;DHT22;24282;48.400;10.808;2023-02-26T15:39:08;2.40;66.70
38514;DHT22;24282;48.400;10.808;2023-02-26T15:41:34;2.30;66.40
38514;DHT22;24282;48.400;10.808;2023-02-26T15:44:15;2.20;66.30
38514;DHT22;24282;48.400;10.808;2023-02-26T15:46:44;2.10;66.20
38514;DHT22;24282;48.400;10.808;2023-02-26T15:49:40;2.10;66.70
38514;DHT22;24282;48.400;10.808;2023-02-26T15:52:09;2.00;66.10
38514;DHT22;24282;48.400;10.808;2023-02-26T15:54:40;2.00;65.90
38514;DHT22;24282;48.400;10.808;2023-02-26T15:57:09;1.90;66.00
38514;DHT22;24282;48.400;10.808;2023-02-26T15:59:39;1.90;65.50
38514;DHT22;24282;48.400;10.808;2023-02-26T16:02:19;1.90;64.70
38514;DHT22;24282;48.400;10.808;2023-02-26T16:04:45;1.80;65.70
38514;DHT22;24282;48.400;10.808;2023-02-26T16:07:12;1.90;64.60
38514;DHT22;24282;48.400;10.808;2023-02-26T16:09:45;1.80;65.50
38514;DHT22;24282;48.400;10.808;2023-02-26T16:12:18;1.80;65.00
38514;DHT22;24282;48.400;10.808;2023-02-26T16:14:48;1.80;65.40
38514;DHT22;24282;48.400;10.808;2023-02-26T16:17:24;1.80;64.40
38514;DHT22;24282;48.400;10.808;2023-02-26T16:19:51;1.80;65.20
38514;DHT22;24282;48.400;10.808;2023-02-26T16:22:35;1.70;65.00
38514;DHT22;24282;48.400;10.808;2023-02-26T16:25:07;1.70;65.80
38514;DHT22;24282;48.400;10.808;2023-02-26T16:27:36;1.60;65.70
38514;DHT22;24282;48.400;10.808;2023-02-26T16:30:04;1.70;66.50
38514;DHT22;24282;48.400;10.808;2023-02-26T16:32:33;1.60;66.60
38514;DHT22;24282;48.400;10.808;2023-02-26T16:35:08;1.60;67.30
38514;DHT22;24282;48.400;10.808;2023-02-26T16:37:35;1.70;67.30
38514;DHT22;24282;48.400;10.808;2023-02-26T16:43:02;1.60;68.90
38514;DHT22;24282;48.400;10.808;2023-02-26T16:48:16;1.60;67.20
38514;DHT22;24282;48.400;10.808;2023-02-26T16:50:43;1.60;67.30
38514;DHT22;24282;48.400;10.808;2023-02-26T16:53:18;1.60;67.00
38514;DHT22;24282;48.400;10.808;2023-02-26T16:55:50;1.50;67.50
38514;DHT22;24282;48.400;10.808;2023-02-26T16:58:17;1.50;68.20
38514;DHT22;24282;48.400;10.808;2023-02-26T17:00:45;1.50;68.60
38514;DHT22;24282;48.400;10.808;2023-02-26T17:03:18;1.40;69.30
38514;DHT22;24282;48.400;10.808;2023-02-26T17:05:59;1.40;69.60
38514;DHT22;24282;48.400;10.808;2023-02-26T17:08:30;1.40;69.90
38514;DHT22;24282;48.400;10.808;2023-02-26T17:11:06;1.30;69.90
38514;DHT22;24282;48.400;10.808;2023-02-26T17:13:34;1.30;70.80
38514;DHT22;24282;48.400;10.808;2023-02-26T17:16:05;1.20;71.00
38514;DHT22;24282;48.400;10.808;2023-02-26T17:18:32;1.20;71.50
38514;DHT22;24282;48.400;10.808;2023-02-26T17:20:58;1.20;71.60
38514;DHT22;24282;48.400;10.808;2023-02-26T17:23:31;1.10;71.60
38514;DHT22;24282;48.400;10.808;2023-02-26T17:25:58;1.20;71.70
38514;DHT22;24282;48.400;10.808;2023-02-26T17:28:32;1.10;71.60
38514;DHT22;24282;48.400;10.808;2023-02-26T17:31:02;1.10;71.60
38514;DHT22;24282;48.400;10.808;2023-02-26T17:33:28;1.00;71.70
38514;DHT22;24282;48.400;10.808;2023-02-26T17:35:58;1.00;72.20
38514;DHT22;24282;48.400;10.808;2023-02-26T17:38:24;1.00;71.70
38514;DHT22;24282;48.400;10.808;2023-02-26T17:40:50;1.00;71.70
38514;DHT22;24282;48.400;10.808;2023-02-26T17:43:21;0.90;71.90
38514;DHT22;24282;48.400;10.808;2023-02-26T17:45:47;0.90;71.70
38514;DHT22;24282;48.400;10.808;2023-02-26T17:48:14;0.90;71.80
38514;DHT22;24282;48.400;10.808;2023-02-26T17:50:53;0.90;71.90
38514;DHT22;24282;48.400;10.808;2023-02-26T17:53:22;0.90;71.60
38514;DHT22;24282;48.400;10.808;2023-02-26T17:55:49;0.80;71.30
38514;DHT22;24282;48.400;10.808;2023-02-26T18:00:44;0.70;71.70
38514;DHT22;24282;48.400;10.808;2023-02-26T18:03:14;0.80;71.40
38514;DHT22;24282;48.400;10.808;2023-02-26T18:05:40;0.70;71.20
38514;DHT22;24282;48.400;10.808;2023-02-26T18:08:11;0.80;71.50
38514;DHT22;24282;48.400;10.808;2023-02-26T18:10:40;0.70;71.50
38514;DHT22;24282;48.400;10.808;2023-02-26T18:13:09;0.80;71.70
38514;DHT22;24282;48.400;10.808;2023-02-26T18:15:35;0.70;71.90
38514;DHT22;24282;48.400;10.808;2023-02-26T18:18:00;0.70;72.40
38514;DHT22;24282;48.400;10.808;2023-02-26T18:20:26;0.70;72.20
38514;DHT22;24282;48.400;10.808;2023-02-26T18:22:54;0.70;72.50
38514;DHT22;24282;48.400;10.808;2023-02-26T18:25:20;0.70;72.80
38514;DHT22;24282;48.400;10.808;2023-02-26T18:27:50;0.70;73.20
38514;DHT22;24282;48.400;10.808;2023-02-26T18:30:31;0.70;73.20
38514;DHT22;24282;48.400;10.808;2023-02-26T18:32:57;0.70;73.80
38514;DHT22;24282;48.400;10.808;2023-02-26T18:35:27;0.60;74.20
38514;DHT22;24282;48.400;10.808;2023-02-26T18:37:55;0.60;74.30
38514;DHT22;24282;48.400;10.808;2023-02-26T18:40:23;0.70;74.40
38514;DHT22;24282;48.400;10.808;2023-02-26T18:42:50;0.60;74.50